createdAt,value
2019-01-27T00:00:47.534Z,6.80
2019-01-27T00:02:51.315Z,6.80
2019-01-27T00:04:55.140Z,6.80
2019-01-27T00:06:58.842Z,6.80
2019-01-27T00:09:04.206Z,6.80
2019-01-27T00:11:08.054Z,6.80
2019-01-27T00:13:11.999Z,6.80
2019-01-27T00:15:15.783Z,6.80
2019-01-27T00:17:19.475Z,6.80
2019-01-27T00:19:23.190Z,6.80
2019-01-27T00:21:27.294Z,6.80
2019-01-27T00:23:30.997Z,6.80
2019-01-27T00:25:34.856Z,6.80
2019-01-27T00:27:38.572Z,6.80
2019-01-27T00:29:42.283Z,6.80
2019-01-27T00:31:45.994Z,6.90
2019-01-27T00:33:50.090Z,6.80
2019-01-27T00:35:54.038Z,6.90
2019-01-27T00:37:58.331Z,6.80
2019-01-27T00:40:02.195Z,6.80
2019-01-27T00:42:06.255Z,6.90
2019-01-27T00:44:11.176Z,6.90
2019-01-27T00:46:15.464Z,6.90
2019-01-27T00:48:19.696Z,6.90
2019-01-27T00:50:23.610Z,6.90
2019-01-27T00:52:27.503Z,6.90
2019-01-27T00:54:31.438Z,6.90
2019-01-27T00:56:35.830Z,6.90
2019-01-27T00:58:40.074Z,6.90
2019-01-27T01:00:44.174Z,6.90
2019-01-27T01:02:48.181Z,6.90
2019-01-27T01:04:52.178Z,6.90
2019-01-27T01:06:58.988Z,6.90
2019-01-27T01:09:03.240Z,6.90
2019-01-27T01:11:07.350Z,7.00
2019-01-27T01:13:11.327Z,6.90
2019-01-27T01:15:15.421Z,6.90
2019-01-27T01:17:19.491Z,6.90
2019-01-27T01:19:23.817Z,6.90
2019-01-27T01:21:28.423Z,6.90
2019-01-27T01:23:32.521Z,6.80
2019-01-27T01:25:36.579Z,6.90
2019-01-27T01:27:40.627Z,6.90
2019-01-27T01:29:44.496Z,6.90
2019-01-27T01:31:48.386Z,6.90
2019-01-27T01:33:52.589Z,6.90
2019-01-27T01:35:56.531Z,6.90
2019-01-27T01:38:00.654Z,6.90
2019-01-27T01:40:06.600Z,6.90
2019-01-27T01:42:10.540Z,6.90
2019-01-27T01:44:14.790Z,6.90
2019-01-27T01:46:18.841Z,6.90
2019-01-27T01:48:22.909Z,6.90
2019-01-27T01:50:26.845Z,6.90
2019-01-27T01:52:30.781Z,6.90
2019-01-27T01:54:34.694Z,6.90
2019-01-27T01:56:38.988Z,6.80
2019-01-27T01:58:43.151Z,6.90
2019-01-27T02:00:47.208Z,6.80
2019-01-27T02:02:51.223Z,6.90
2019-01-27T02:04:55.079Z,6.90
2019-01-27T02:06:59.019Z,6.80
2019-01-27T02:09:03.871Z,6.80
2019-01-27T02:11:07.932Z,6.80
2019-01-27T02:13:11.942Z,6.80
2019-01-27T02:16:00.385Z,6.80
2019-01-27T02:18:06.161Z,6.90
2019-01-27T02:20:10.223Z,6.90
2019-01-27T02:22:14.570Z,6.90
2019-01-27T02:24:18.523Z,6.80
2019-01-27T02:26:22.460Z,6.80
2019-01-27T02:28:26.499Z,6.80
2019-01-27T02:30:30.523Z,6.80
2019-01-27T02:32:34.510Z,6.80
2019-01-27T02:34:38.409Z,6.80
2019-01-27T02:36:42.503Z,6.80
2019-01-27T02:38:46.534Z,6.80
2019-01-27T02:40:50.547Z,6.80
2019-01-27T02:42:54.520Z,6.80
2019-01-27T02:44:58.637Z,6.80
2019-01-27T02:47:02.644Z,6.80
2019-01-27T02:49:06.596Z,6.80
2019-01-27T02:51:10.672Z,6.80
2019-01-27T02:53:14.679Z,6.80
2019-01-27T02:55:18.679Z,6.80
2019-01-27T02:57:22.640Z,6.90
2019-01-27T02:59:26.657Z,6.80
2019-01-27T03:01:30.655Z,6.90
2019-01-27T03:03:35.057Z,6.90
2019-01-27T03:05:55.813Z,6.90
2019-01-27T03:07:59.780Z,6.90
2019-01-27T03:10:05.081Z,6.90
2019-01-27T03:12:09.158Z,6.90
2019-01-27T03:14:13.005Z,6.90
2019-01-27T03:16:16.955Z,6.90
2019-01-27T03:18:21.298Z,6.90
2019-01-27T03:20:25.297Z,6.90
2019-01-27T03:22:29.330Z,6.90
2019-01-27T03:24:33.549Z,6.90
2019-01-27T03:26:39.875Z,6.90
2019-01-27T03:28:43.779Z,6.90
2019-01-27T03:30:47.828Z,6.80
2019-01-27T03:32:51.937Z,6.80
2019-01-27T03:34:56.040Z,6.80
2019-01-27T03:37:00.417Z,6.80
2019-01-27T03:39:09.597Z,6.80
2019-01-27T03:41:13.560Z,6.80
2019-01-27T03:43:17.555Z,6.80
2019-01-27T03:45:21.542Z,6.70
2019-01-27T03:47:25.522Z,6.70
2019-01-27T03:49:29.444Z,6.70
2019-01-27T03:51:33.373Z,6.70
2019-01-27T03:53:37.669Z,6.80
2019-01-27T03:55:41.584Z,6.80
2019-01-27T03:57:45.564Z,6.80
2019-01-27T03:59:49.557Z,6.80
2019-01-27T04:01:53.481Z,6.90
2019-01-27T04:03:57.389Z,6.90
2019-01-27T04:06:01.595Z,6.90
2019-01-27T04:08:05.731Z,6.80
2019-01-27T04:10:15.469Z,6.80
2019-01-27T04:12:19.741Z,6.80
2019-01-27T04:14:23.807Z,6.80
2019-01-27T04:16:27.884Z,6.80
2019-01-27T04:18:31.699Z,6.70
2019-01-27T04:20:35.810Z,6.70
2019-01-27T04:22:39.826Z,6.80
2019-01-27T04:24:43.718Z,6.80
2019-01-27T04:26:47.631Z,6.80
2019-01-27T04:28:51.868Z,6.80
2019-01-27T04:30:55.801Z,6.80
2019-01-27T04:33:00.060Z,6.80
2019-01-27T04:35:05.351Z,6.80
2019-01-27T04:37:09.390Z,6.80
2019-01-27T04:39:13.511Z,6.80
2019-01-27T04:41:17.541Z,6.70
2019-01-27T04:43:21.516Z,6.70
2019-01-27T04:45:32.353Z,6.70
2019-01-27T04:47:41.728Z,6.70
2019-01-27T04:49:49.863Z,6.60
2019-01-27T04:51:58.804Z,6.60
2019-01-27T04:54:03.020Z,6.50
2019-01-27T04:56:12.842Z,6.40
2019-01-27T04:58:21.277Z,6.40
2019-01-27T05:00:31.600Z,6.40
2019-01-27T05:02:45.225Z,6.40
2019-01-27T05:04:57.677Z,6.40
2019-01-27T05:07:12.036Z,6.40
2019-01-27T05:09:21.522Z,6.50
2019-01-27T05:11:25.971Z,6.50
2019-01-27T05:13:29.915Z,6.50
2019-01-27T05:15:34.317Z,6.60
2019-01-27T05:17:38.273Z,6.60
2019-01-27T05:19:42.220Z,6.70
2019-01-27T05:21:46.419Z,6.70
2019-01-27T05:23:50.353Z,6.70
2019-01-27T05:25:54.347Z,6.80
2019-01-27T05:27:58.368Z,6.80
2019-01-27T05:30:02.356Z,6.80
2019-01-27T05:32:06.286Z,6.80
2019-01-27T05:34:10.119Z,6.80
2019-01-27T05:36:14.007Z,6.80
2019-01-27T05:38:17.936Z,6.80
2019-01-27T05:40:21.898Z,6.70
2019-01-27T05:42:25.809Z,6.70
2019-01-27T05:44:29.978Z,6.70
2019-01-27T05:46:33.806Z,6.70
2019-01-27T05:48:37.727Z,6.70
2019-01-27T05:50:41.760Z,6.70
2019-01-27T05:52:46.038Z,6.80
2019-01-27T05:54:49.900Z,6.80
2019-01-27T05:56:56.584Z,6.80
2019-01-27T05:58:59.630Z,6.80
2019-01-27T06:01:03.658Z,6.80
2019-01-27T06:03:07.601Z,6.80
2019-01-27T06:05:11.878Z,6.80
2019-01-27T06:07:16.062Z,6.80
2019-01-27T06:09:19.971Z,6.80
2019-01-27T06:11:23.891Z,6.80
2019-01-27T06:13:27.875Z,6.80
2019-01-27T06:15:31.883Z,6.80
2019-01-27T06:17:35.797Z,6.80
2019-01-27T06:19:39.692Z,6.80
2019-01-27T06:21:43.626Z,6.80
2019-01-27T06:23:47.678Z,6.80
2019-01-27T06:25:51.570Z,6.80
2019-01-27T06:27:55.545Z,6.90
2019-01-27T06:29:59.553Z,6.90
2019-01-27T06:32:03.852Z,6.90
2019-01-27T06:34:14.145Z,6.90
2019-01-27T06:36:18.199Z,7.00
2019-01-27T06:38:22.215Z,6.90
2019-01-27T06:40:26.454Z,6.90
2019-01-27T06:42:30.487Z,6.90
2019-01-27T06:44:34.626Z,6.90
2019-01-27T06:46:38.989Z,6.90
2019-01-27T06:48:42.893Z,6.90
2019-01-27T06:50:47.134Z,6.90
2019-01-27T06:52:51.200Z,6.90
2019-01-27T06:54:55.159Z,6.90
2019-01-27T06:56:59.065Z,6.90
2019-01-27T06:59:14.956Z,6.90
2019-01-27T07:01:31.972Z,6.90
2019-01-27T07:03:47.904Z,6.90
2019-01-27T07:06:02.863Z,6.90
2019-01-27T07:08:25.814Z,6.90
2019-01-27T07:10:48.790Z,6.90
2019-01-27T07:13:03.344Z,6.90
2019-01-27T07:15:27.588Z,7.00
2019-01-27T07:17:42.449Z,7.00
2019-01-27T07:20:02.470Z,7.00
2019-01-27T07:29:29.266Z,7.00
2019-01-27T07:38:06.591Z,7.10
2019-01-27T07:41:22.520Z,7.10
2019-01-27T07:58:39.902Z,7.40
2019-01-27T08:08:01.563Z,7.40
2019-01-27T08:10:47.555Z,7.40
2019-01-27T08:22:27.054Z,7.50
2019-01-27T08:25:42.923Z,7.60
2019-01-27T08:28:37.091Z,7.70
2019-01-27T08:31:18.588Z,7.80
2019-01-27T08:33:33.608Z,7.90
2019-01-27T08:35:52.397Z,7.90
2019-01-27T08:38:23.959Z,8.00
2019-01-27T08:40:56.403Z,8.00
2019-01-27T08:43:24.053Z,8.10
2019-01-27T08:45:35.509Z,8.10
2019-01-27T08:48:11.084Z,8.20
2019-01-27T08:51:06.695Z,8.20
2019-01-27T08:53:01.867Z,8.30
2019-01-27T08:56:10.883Z,8.30
2019-01-27T08:59:03.788Z,8.30
2019-01-27T09:04:27.775Z,8.30
2019-01-27T09:06:49.380Z,8.40
2019-01-27T09:09:15.948Z,8.40
2019-01-27T09:11:44.959Z,8.50
2019-01-27T09:15:09.338Z,8.50
2019-01-27T09:17:19.755Z,8.60
2019-01-27T09:20:21.865Z,8.70
2019-01-27T09:22:48.059Z,8.60
2019-01-27T09:25:13.464Z,8.70
2019-01-27T09:28:12.289Z,8.70
2019-01-27T09:30:51.491Z,8.70
2019-01-27T09:33:13.951Z,8.60
2019-01-27T09:35:35.352Z,8.60
2019-01-27T09:38:16.464Z,8.60
2019-01-27T09:40:58.075Z,8.60
2019-01-27T09:43:22.824Z,8.60
2019-01-27T09:45:42.475Z,8.50
2019-01-27T09:48:40.203Z,8.50
2019-01-27T09:51:13.413Z,8.50
2019-01-27T09:53:25.242Z,8.50
2019-01-27T09:55:59.386Z,8.50
2019-01-27T09:58:30.807Z,8.50
2019-01-27T10:01:30.891Z,8.40
2019-01-27T10:03:58.722Z,8.40
2019-01-27T10:06:12.659Z,8.40
2019-01-27T10:08:52.542Z,8.50
2019-01-27T10:11:40.880Z,8.50
2019-01-27T10:14:01.968Z,8.50
2019-01-27T10:16:18.549Z,8.50
2019-01-27T10:18:49.693Z,8.50
2019-01-27T10:21:31.949Z,8.50
2019-01-27T10:23:51.189Z,8.50
2019-01-27T10:26:15.298Z,8.50
2019-01-27T10:28:36.728Z,8.50
2019-01-27T10:31:09.122Z,8.50
2019-01-27T10:33:30.989Z,8.60
2019-01-27T10:35:49.451Z,8.60
2019-01-27T10:38:22.494Z,8.50
2019-01-27T10:40:47.750Z,8.50
2019-01-27T10:43:06.404Z,8.50
2019-01-27T10:45:29.640Z,8.60
2019-01-27T10:47:50.278Z,8.80
2019-01-27T10:49:50.916Z,8.80
2019-01-27T10:52:03.029Z,8.80
2019-01-27T10:54:23.839Z,8.80
2019-01-27T10:56:36.017Z,8.70
2019-01-27T10:59:00.353Z,8.60
2019-01-27T11:01:42.276Z,8.70
2019-01-27T11:04:30.507Z,8.70
2019-01-27T11:07:06.914Z,8.60
2019-01-27T11:09:38.840Z,8.60
2019-01-27T11:12:06.815Z,8.60
2019-01-27T11:14:33.594Z,8.70
2019-01-27T11:17:14.990Z,8.70
2019-01-27T11:19:38.783Z,8.80
2019-01-27T11:22:08.154Z,8.80
2019-01-27T11:27:52.981Z,8.90
2019-01-27T11:30:48.937Z,9.00
2019-01-27T11:33:33.166Z,9.00
2019-01-27T11:38:39.510Z,8.70
2019-01-27T11:50:15.106Z,8.60
2019-01-27T11:52:57.437Z,8.60
2019-01-27T11:55:05.925Z,8.60
2019-01-27T12:00:39.399Z,8.80
2019-01-27T12:02:46.698Z,8.90
2019-01-27T12:05:07.334Z,9.00
2019-01-27T12:07:11.146Z,9.00
2019-01-27T12:09:14.924Z,9.10
2019-01-27T12:11:18.785Z,9.10
2019-01-27T12:13:22.494Z,9.20
2019-01-27T12:15:26.514Z,9.20
2019-01-27T12:17:38.503Z,9.30
2019-01-27T12:23:26.255Z,9.50
2019-01-27T12:25:48.491Z,9.50
2019-01-27T12:28:21.299Z,9.40
2019-01-27T12:30:48.390Z,9.30
2019-01-27T12:37:35.085Z,9.10
2019-01-27T12:40:27.812Z,9.10
2019-01-27T12:42:11.439Z,8.90
2019-01-27T12:44:22.793Z,8.80
2019-01-27T12:46:33.745Z,8.70
2019-01-27T12:48:57.270Z,8.80
2019-01-27T12:51:10.175Z,8.80
2019-01-27T12:53:29.436Z,8.80
2019-01-27T12:55:33.362Z,8.90
2019-01-27T12:57:37.665Z,9.10
2019-01-27T12:59:58.087Z,9.20
2019-01-27T13:02:56.158Z,9.30
2019-01-27T13:04:59.936Z,9.20
2019-01-27T13:07:07.937Z,9.20
2019-01-27T13:09:11.993Z,9.20
2019-01-27T13:11:16.404Z,9.10
2019-01-27T13:13:21.597Z,8.90
2019-01-27T13:15:25.407Z,8.80
2019-01-27T13:17:31.424Z,8.70
2019-01-27T13:19:35.352Z,8.60
2019-01-27T13:21:42.620Z,8.50
2019-01-27T13:23:46.657Z,8.50
2019-01-27T13:25:53.838Z,8.50
2019-01-27T13:27:57.837Z,8.40
2019-01-27T13:30:03.196Z,8.40
2019-01-27T13:32:07.332Z,8.40
2019-01-27T13:34:56.207Z,8.40
2019-01-27T13:37:27.704Z,8.40
2019-01-27T13:42:45.539Z,8.30
2019-01-27T13:47:44.713Z,8.20
2019-01-27T13:50:15.388Z,8.10
2019-01-27T13:55:46.303Z,8.20
2019-01-27T13:57:56.482Z,8.20
2019-01-27T14:00:23.713Z,8.20
2019-01-27T14:02:44.242Z,8.20
2019-01-27T14:04:51.497Z,8.10
2019-01-27T14:07:18.902Z,8.10
2019-01-27T14:09:48.192Z,8.30
2019-01-27T14:12:20.653Z,8.50
2019-01-27T14:14:41.030Z,8.50
2019-01-27T14:17:16.696Z,8.50
2019-01-27T14:19:08.594Z,8.50
2019-01-27T14:21:33.307Z,8.40
2019-01-27T14:24:14.559Z,8.30
2019-01-27T14:26:09.850Z,8.30
2019-01-27T14:29:01.717Z,8.20
2019-01-27T14:31:05.679Z,8.20
2019-01-27T14:33:14.220Z,8.10
2019-01-27T14:36:15.316Z,8.00
2019-01-27T14:39:14.054Z,8.00
2019-01-27T14:41:40.420Z,8.00
2019-01-27T14:44:28.670Z,8.10
2019-01-27T14:46:58.408Z,8.10
2019-01-27T14:49:01.271Z,8.10
2019-01-27T14:51:05.678Z,8.10
2019-01-27T14:53:13.383Z,8.10
2019-01-27T14:55:18.108Z,8.10
2019-01-27T14:57:22.034Z,8.10
2019-01-27T14:59:26.022Z,8.10
2019-01-27T15:01:36.413Z,8.10
2019-01-27T15:03:48.020Z,8.00
2019-01-27T15:05:55.681Z,8.00
2019-01-27T15:08:00.326Z,7.90
2019-01-27T15:10:05.595Z,7.90
2019-01-27T15:12:09.936Z,7.90
2019-01-27T15:14:16.872Z,7.90
2019-01-27T15:16:24.275Z,7.90
2019-01-27T15:18:30.478Z,7.80
2019-01-27T15:21:12.924Z,7.80
2019-01-27T15:23:57.452Z,7.80
2019-01-27T15:26:50.610Z,7.70
2019-01-27T15:29:43.233Z,7.70
2019-01-27T15:32:26.124Z,7.60
2019-01-27T15:34:40.135Z,7.60
2019-01-27T15:37:14.278Z,7.60
2019-01-27T15:39:43.737Z,7.60
2019-01-27T15:42:26.775Z,7.60
2019-01-27T15:45:30.543Z,7.60
2019-01-27T15:52:22.345Z,7.50
2019-01-27T15:54:28.883Z,7.40
2019-01-27T15:56:33.948Z,7.30
2019-01-27T15:58:45.661Z,7.20
2019-01-27T16:01:00.972Z,7.00
2019-01-27T16:06:15.990Z,6.80
2019-01-27T16:09:50.500Z,6.60
2019-01-27T16:11:47.747Z,6.50
2019-01-27T16:16:17.620Z,6.30
2019-01-27T16:28:30.669Z,6.00
2019-01-27T16:51:26.831Z,5.90
2019-01-27T16:56:56.318Z,5.90
2019-01-27T17:07:49.019Z,5.90
2019-01-27T17:18:17.342Z,5.80
2019-01-27T17:20:34.840Z,5.80
2019-01-27T17:22:50.146Z,5.70
2019-01-27T17:32:27.638Z,5.50
2019-01-27T17:37:06.893Z,5.30
2019-01-27T17:41:47.359Z,5.30
2019-01-27T17:51:33.429Z,5.30
2019-01-27T18:08:30.431Z,5.20
2019-01-27T18:18:12.521Z,5.30
2019-01-27T18:30:01.029Z,5.40
2019-01-27T18:34:41.783Z,5.50
2019-01-27T18:41:46.602Z,5.70
2019-01-27T19:11:26.401Z,5.80
2019-01-27T19:36:12.640Z,5.60
2019-01-27T20:00:46.364Z,4.90
2019-01-27T20:03:23.803Z,4.80
2019-01-27T20:15:21.716Z,4.40
2019-01-27T20:20:16.488Z,4.20
2019-01-27T20:22:58.069Z,4.20
2019-01-27T20:41:16.407Z,4.40
2019-01-27T20:44:04.824Z,4.40
2019-01-27T21:05:50.078Z,3.80
2019-01-27T21:08:51.418Z,3.70
2019-01-27T21:11:33.685Z,3.60
2019-01-27T21:14:15.908Z,3.70
2019-01-27T21:19:30.212Z,3.70
2019-01-27T21:24:26.214Z,3.80
2019-01-27T21:34:47.277Z,3.90
2019-01-27T22:03:34.273Z,3.60
2019-01-27T22:13:15.505Z,3.70
2019-01-27T22:15:51.959Z,3.70
2019-01-27T22:22:42.097Z,3.80
2019-01-27T22:32:53.823Z,4.10
2019-01-27T22:35:40.065Z,4.20
2019-01-27T22:46:53.442Z,4.40
2019-01-27T22:51:37.920Z,4.50
2019-01-27T22:59:50.387Z,4.60
2019-01-27T23:02:01.665Z,4.60
2019-01-27T23:17:29.860Z,4.70
2019-01-27T23:19:54.486Z,4.70
2019-01-27T23:22:32.093Z,4.80
2019-01-27T23:24:44.307Z,4.80
2019-01-27T23:27:15.746Z,4.80
2019-01-27T23:29:43.246Z,4.80
2019-01-27T23:37:37.895Z,4.90
2019-01-27T23:40:09.379Z,4.80
2019-01-27T23:42:27.857Z,4.80
2019-01-27T23:44:19.371Z,4.80
2019-01-27T23:46:42.468Z,4.80
2019-01-27T23:49:13.319Z,4.80
2019-01-27T23:51:39.554Z,4.80
2019-01-27T23:54:20.140Z,4.80
